Time;durP1;ratioP1;P1;durP2;ratioP2;P2;SDS_P1;SDS_P2;PMS_P1;PMS_P2;Temp;Humidity;BMP_temperature;BMP_pressure;BME280_temperature;BME280_humidity;BME280_pressure;Samples;Min_cycle;Max_cycle;Signal;HPM_P1;HPM_P2
2021/05/15 00:01:41;;;;;;;5.10;2.83;;;;;;;13.08;75.76;99680.44;1732946;82;21939;-73
2021/05/15 00:04:07;;;;;;;4.87;3.23;;;;;;;13.13;75.79;99676.34;1732011;82;21361;-73
2021/05/15 00:06:34;;;;;;;4.97;2.83;;;;;;;13.18;75.75;99674.10;1731399;82;21940;-73
2021/05/15 00:09:01;;;;;;;5.37;3.30;;;;;;;13.23;75.68;99672.13;1731693;82;21308;-72
2021/05/15 00:11:28;;;;;;;3.90;2.77;;;;;;;13.28;75.56;99672.05;1731563;81;21337;-72
2021/05/15 00:13:56;;;;;;;5.00;3.07;;;;;;;13.33;75.46;99673.31;1721004;82;21398;-73
2021/05/15 00:16:24;;;;;;;4.47;3.00;;;;;;;13.43;75.31;99672.87;1724369;82;21358;-74
2021/05/15 00:18:50;;;;;;;4.20;3.13;;;;;;;13.52;75.10;99675.09;1733980;81;22057;-72
2021/05/15 00:21:17;;;;;;;4.97;3.10;;;;;;;13.58;74.84;99677.38;1731586;81;21575;-72
2021/05/15 00:23:44;;;;;;;4.60;3.10;;;;;;;13.66;74.63;99668.41;1734402;81;21322;-73
2021/05/15 00:26:14;;;;;;;6.10;3.30;;;;;;;13.66;74.65;99675.13;1730938;81;21846;-73
2021/05/15 00:28:40;;;;;;;5.77;3.50;;;;;;;13.59;74.68;99683.56;1659766;85;21961;-73
2021/05/15 00:31:06;;;;;;;6.23;3.10;;;;;;;13.54;74.75;99679.63;1727804;81;21244;-73
2021/05/15 00:33:33;;;;;;;5.27;3.30;;;;;;;13.53;74.80;99678.05;1726480;82;21363;-72
2021/05/15 00:36:03;;;;;;;4.90;3.30;;;;;;;13.55;74.85;99677.97;1696683;84;21913;-73
2021/05/15 00:38:29;;;;;;;6.03;3.30;;;;;;;13.58;74.88;99679.27;1726776;81;21328;-73
2021/05/15 00:40:56;;;;;;;5.37;3.50;;;;;;;13.57;74.92;99676.35;1730720;81;21388;-73
2021/05/15 00:43:24;;;;;;;5.13;3.40;;;;;;;13.57;74.96;99681.17;1723788;82;21363;-73
2021/05/15 00:45:51;;;;;;;4.67;3.40;;;;;;;13.58;74.94;99679.27;1726503;82;21187;-72
2021/05/15 00:48:17;;;;;;;6.27;3.67;;;;;;;13.58;74.91;99672.56;1730107;82;22083;-72
2021/05/15 00:50:44;;;;;;;5.20;3.50;;;;;;;13.58;74.87;99676.59;1734022;81;21396;-71
2021/05/15 00:53:11;;;;;;;4.23;3.10;;;;;;;13.57;74.78;99673.67;1720607;82;21312;-72
2021/05/15 00:55:38;;;;;;;4.37;3.07;;;;;;;13.55;74.72;99673.95;1719933;81;21269;-72
2021/05/15 00:58:05;;;;;;;5.13;3.30;;;;;;;13.55;74.65;99673.16;1699765;84;21330;-73
2021/05/15 01:00:32;;;;;;;5.10;3.60;;;;;;;13.53;74.60;99671.34;1729425;81;21580;-72
2021/05/15 01:02:59;;;;;;;4.77;3.10;;;;;;;13.55;74.54;99670.48;1728601;82;21304;-73
2021/05/15 01:05:26;;;;;;;5.87;3.20;;;;;;;13.54;74.46;99671.03;1733749;82;21927;-72
2021/05/15 01:07:53;;;;;;;4.77;3.40;;;;;;;13.56;74.39;99669.41;1732745;81;21239;-72
2021/05/15 01:10:20;;;;;;;5.23;3.33;;;;;;;13.57;74.30;99676.35;1734464;81;21427;-73
2021/05/15 01:12:55;;;;;;;5.63;3.10;;;;;;;13.57;74.27;99681.17;1726439;81;21359;-73
2021/05/15 01:15:26;;;;;;;5.97;3.53;;;;;;;13.58;74.23;99677.94;1714958;82;21396;-72
2021/05/15 01:17:59;;;;;;;5.40;3.20;;;;;;;13.59;74.23;99682.23;1737020;82;21336;-72
2021/05/15 01:20:30;;;;;;;4.57;3.33;;;;;;;13.57;74.23;99683.84;1721385;81;21642;-72
2021/05/15 01:22:57;;;;;;;6.28;4.25;;;;;;;13.56;74.27;99686.84;1732613;81;21344;-72
2021/05/15 01:25:24;;;;;;;6.53;3.60;;;;;;;13.53;74.36;99687.44;1728705;81;21124;-72
2021/05/15 01:27:51;;;;;;;6.30;3.83;;;;;;;13.51;74.46;99692.30;1727040;81;21359;-71
2021/05/15 01:30:21;;;;;;;5.70;3.97;;;;;;;13.49;74.57;99683.73;1729335;82;21296;-72
2021/05/15 01:32:47;;;;;;;6.33;3.90;;;;;;;13.49;74.67;99687.76;1729946;81;21471;-72
2021/05/15 01:35:17;;;;;;;5.93;4.07;;;;;;;13.48;74.79;99687.52;1726900;81;22624;-72
2021/05/15 01:37:44;;;;;;;5.50;4.10;;;;;;;13.49;74.87;99690.45;1723680;81;21942;-72
2021/05/15 01:40:13;;;;;;;6.33;4.43;;;;;;;13.49;74.92;99684.56;1731920;82;21396;-73
2021/05/15 01:42:40;;;;;;;6.13;4.30;;;;;;;13.45;75.06;99688.11;1722844;81;21337;-73
2021/05/15 01:45:07;;;;;;;5.43;4.27;;;;;;;13.41;75.24;99684.44;1724279;82;21712;-74
2021/05/15 01:47:36;;;;;;;5.27;3.97;;;;;;;13.36;75.38;99678.64;1715110;82;21941;-75
2021/05/15 01:50:06;;;;;;;7.60;4.63;;;;;;;13.33;75.50;99685.38;1716097;82;21811;-73
2021/05/15 01:52:32;;;;;;;7.10;4.43;;;;;;;13.32;75.60;99690.48;1719870;81;21186;-72
2021/05/15 01:55:11;;;;;;;5.63;4.13;;;;;;;13.33;75.69;99690.75;1733420;81;21156;-71
2021/05/15 01:57:38;;;;;;;6.83;4.17;;;;;;;13.34;75.74;99690.98;1670203;84;21265;-71
2021/05/15 02:00:07;;;;;;;6.77;4.30;;;;;;;13.38;75.79;99689.30;1718327;82;21193;-71
2021/05/15 02:02:36;;;;;;;5.87;4.03;;;;;;;13.43;75.79;99695.13;1738125;81;21277;-71
2021/05/15 02:05:03;;;;;;;5.00;3.80;;;;;;;13.46;75.78;99691.03;1732799;82;21777;-70
2021/05/15 02:07:29;;;;;;;5.83;4.33;;;;;;;13.48;75.75;99695.56;1736463;82;21409;-72
2021/05/15 02:09:57;;;;;;;7.90;4.97;;;;;;;13.51;75.71;99701.69;1724803;81;21351;-72
2021/05/15 02:12:23;;;;;;;5.93;4.53;;;;;;;13.52;75.66;99696.55;1699301;82;21419;-70
2021/05/15 02:14:50;;;;;;;6.10;4.60;;;;;;;13.50;75.65;99704.92;1661987;85;21302;-71
2021/05/15 02:17:16;;;;;;;6.63;5.23;;;;;;;13.45;75.71;99699.63;1739502;82;21103;-72
2021/05/15 02:19:44;;;;;;;6.33;4.80;;;;;;;13.42;75.77;99702.12;1735486;81;21271;-71
2021/05/15 02:22:11;;;;;;;8.20;5.33;;;;;;;13.43;75.83;99710.44;1755344;81;21155;-71
2021/05/15 02:24:38;;;;;;;6.43;4.83;;;;;;;13.41;75.83;99709.92;1733400;81;21318;-71
2021/05/15 02:27:04;;;;;;;6.87;4.63;;;;;;;13.38;75.83;99716.66;1734230;81;21304;-71
2021/05/15 02:29:31;;;;;;;6.17;4.60;;;;;;;13.37;75.89;99713.20;1734974;81;21343;-71
2021/05/15 02:31:58;;;;;;;6.47;5.00;;;;;;;13.37;75.92;99715.09;1738677;81;21292;-71
2021/05/15 02:34:25;;;;;;;6.07;4.33;;;;;;;13.38;75.97;99720.14;1733501;81;21320;-72
2021/05/15 02:36:52;;;;;;;7.13;5.30;;;;;;;13.36;76.00;99719.66;1727399;81;21279;-71
2021/05/15 02:39:19;;;;;;;6.20;4.73;;;;;;;13.33;76.05;99720.25;1731723;82;21427;-71
2021/05/15 02:41:46;;;;;;;6.60;5.00;;;;;;;13.31;76.13;99719.73;1699837;82;21909;-71
2021/05/15 02:44:13;;;;;;;6.97;5.07;;;;;;;13.29;76.20;99716.58;1731632;81;21238;-72
2021/05/15 02:46:39;;;;;;;6.43;4.97;;;;;;;13.27;76.31;99720.09;1736046;81;21217;-72
2021/05/15 02:49:06;;;;;;;6.90;5.43;;;;;;;13.25;76.46;99723.59;1733624;81;21285;-71
2021/05/15 02:51:33;;;;;;;6.17;4.90;;;;;;;13.27;76.62;99720.09;1732933;82;21097;-72
2021/05/15 02:54:01;;;;;;;7.60;5.20;;;;;;;13.29;76.70;99731.33;1735525;81;21390;-71
2021/05/15 02:56:28;;;;;;;5.50;4.77;;;;;;;13.30;76.80;99732.91;1734378;81;21386;-72
2021/05/15 02:58:54;;;;;;;7.13;5.47;;;;;;;13.31;76.93;99737.72;1739413;81;21272;-72
2021/05/15 03:01:21;;;;;;;7.03;5.30;;;;;;;13.32;77.05;99733.39;1730721;81;21304;-71
2021/05/15 03:03:47;;;;;;;6.30;5.30;;;;;;;13.32;77.15;99742.77;1733305;81;21319;-71
2021/05/15 03:06:14;;;;;;;6.53;5.20;;;;;;;13.35;77.19;99744.87;1731432;81;21324;-72
2021/05/15 03:08:41;;;;;;;8.13;5.50;;;;;;;13.41;77.27;99744.80;1738376;82;21185;-72
2021/05/15 03:11:08;;;;;;;6.80;5.10;;;;;;;13.48;77.29;99750.56;1714268;82;21221;-71
2021/05/15 03:13:34;;;;;;;7.03;5.40;;;;;;;13.53;77.26;99754.51;1736077;81;21249;-72
2021/05/15 03:16:01;;;;;;;6.67;5.10;;;;;;;13.55;77.18;99754.44;1732289;81;21238;-70
2021/05/15 03:18:27;;;;;;;7.07;5.77;;;;;;;13.56;77.08;99770.02;1740091;82;21331;-72
2021/05/15 03:20:55;;;;;;;6.80;5.13;;;;;;;13.51;77.05;99762.84;1713710;81;21711;-72
2021/05/15 03:23:22;;;;;;;6.93;5.40;;;;;;;13.49;77.04;99764.22;1719482;81;21214;-71
2021/05/15 03:25:49;;;;;;;7.23;5.23;;;;;;;13.50;76.96;99763.14;1731493;81;21344;-71
2021/05/15 03:28:16;;;;;;;7.20;5.37;;;;;;;13.51;76.92;99770.09;1738533;82;21278;-72
2021/05/15 03:30:42;;;;;;;6.83;4.97;;;;;;;13.50;76.85;99767.96;1736338;81;21355;-72
2021/05/15 03:33:09;;;;;;;7.37;4.70;;;;;;;13.49;76.81;99767.72;1717977;81;21245;-72
2021/05/15 03:35:36;;;;;;;6.53;4.87;;;;;;;13.51;76.81;99775.46;1728240;81;21918;-72
2021/05/15 03:38:03;;;;;;;6.40;4.80;;;;;;;13.52;76.78;99768.48;1734501;81;21282;-72
2021/05/15 03:40:29;;;;;;;7.10;5.03;;;;;;;13.56;76.74;99766.78;1740298;81;21147;-71
2021/05/15 03:42:56;;;;;;;5.37;4.50;;;;;;;13.62;76.63;99779.55;1737561;82;22536;-71
2021/05/15 03:45:26;;;;;;;6.07;4.80;;;;;;;13.66;76.60;99776.54;1732464;81;21881;-70
2021/05/15 03:47:53;;;;;;;6.60;4.73;;;;;;;13.71;76.48;99772.41;1736500;82;21295;-71
2021/05/15 03:50:22;;;;;;;6.60;4.67;;;;;;;13.80;76.35;99770.63;1737732;82;21811;-71
2021/05/15 03:52:52;;;;;;;6.80;5.10;;;;;;;13.91;76.25;99768.54;1739021;82;21298;-72
2021/05/15 03:55:20;;;;;;;5.58;4.47;;;;;;;14.02;75.90;99778.55;1727642;81;21335;-71
2021/05/15 03:57:47;;;;;;;5.83;4.40;;;;;;;14.07;75.74;99781.13;1731639;81;20986;-71
2021/05/15 04:00:15;;;;;;;5.60;4.30;;;;;;;14.20;75.65;99782.22;1737780;82;21403;-71
2021/05/15 04:02:42;;;;;;;5.73;4.23;;;;;;;14.33;75.47;99781.41;1740549;82;21700;-72
2021/05/15 04:05:10;;;;;;;7.57;4.53;;;;;;;14.62;74.71;99773.58;1733508;81;21230;-71
2021/05/15 04:07:38;;;;;;;7.63;4.77;;;;;;;14.62;74.71;99773.58;1735100;82;21483;-71
2021/05/15 04:10:06;;;;;;;5.77;4.03;;;;;;;14.77;74.45;99771.34;1738172;82;21384;-72
2021/05/15 04:12:46;;;;;;;5.90;4.60;;;;;;;14.92;73.95;99770.19;1741680;82;21202;-72
2021/05/15 04:15:08;;;;;;;5.73;4.37;;;;;;;15.02;73.43;99774.53;1715834;81;22044;-71
2021/05/15 04:17:34;;;;;;;7.47;4.50;;;;;;;15.20;72.69;99785.66;1732650;81;21383;-72
2021/05/15 04:20:02;;;;;;;6.27;4.23;;;;;;;15.29;72.49;99786.26;1736825;81;21403;-71
2021/05/15 04:22:29;;;;;;;6.67;4.10;;;;;;;15.38;72.14;99784.42;1738131;81;22017;-72
2021/05/15 04:24:57;;;;;;;4.73;3.90;;;;;;;15.46;71.99;99784.48;1737744;81;21510;-71
2021/05/15 04:27:25;;;;;;;7.10;3.73;;;;;;;15.46;71.99;99784.48;1733500;81;21606;-71
2021/05/15 04:29:54;;;;;;;5.67;3.70;;;;;;;15.53;71.12;99788.08;1734320;82;21537;-71
2021/05/15 04:32:22;;;;;;;5.37;3.83;;;;;;;15.57;70.66;99789.05;1744747;81;21493;-71
2021/05/15 04:34:49;;;;;;;4.80;3.50;;;;;;;15.61;70.50;99787.32;1738370;82;22262;-72
2021/05/15 04:37:16;;;;;;;5.23;4.00;;;;;;;15.69;70.39;99797.91;1726931;82;21788;-70
2021/05/15 04:39:43;;;;;;;5.60;3.60;;;;;;;15.84;69.90;99796.72;1740952;81;22187;-71
2021/05/15 04:42:10;;;;;;;6.07;3.77;;;;;;;15.84;69.90;99796.72;1730097;81;21711;-71
2021/05/15 04:44:37;;;;;;;5.17;3.73;;;;;;;15.91;69.45;99799.76;1736764;82;22187;-71
2021/05/15 04:47:04;;;;;;;5.37;3.83;;;;;;;16.00;69.15;99801.16;1726958;82;21716;-72
2021/05/15 04:49:33;;;;;;;5.43;4.03;;;;;;;16.04;68.74;99796.16;1732393;81;21786;-69
2021/05/15 04:51:59;;;;;;;6.73;3.83;;;;;;;16.10;68.47;99800.31;1739451;81;21727;-71
2021/05/15 04:54:27;;;;;;;4.23;3.00;;;;;;;16.16;68.13;99802.31;1739211;81;21768;-71
2021/05/15 04:56:54;;;;;;;4.50;3.40;;;;;;;16.24;68.03;99804.78;1733128;81;21751;-71
2021/05/15 04:59:20;;;;;;;4.60;3.57;;;;;;;16.32;67.79;99808.04;1735348;81;21739;-72
2021/05/15 05:01:47;;;;;;;4.63;3.50;;;;;;;16.39;67.42;99809.19;1738741;81;22399;-72
2021/05/15 05:04:15;;;;;;;5.03;3.30;;;;;;;16.47;67.33;99810.86;1700237;82;21817;-71
2021/05/15 05:06:41;;;;;;;4.37;2.80;;;;;;;16.56;66.96;99813.03;1668088;84;21787;-71
2021/05/15 05:09:09;;;;;;;4.63;3.10;;;;;;;16.63;66.56;99812.00;1728547;82;21640;-71
2021/05/15 05:11:37;;;;;;;4.93;2.87;;;;;;;16.73;66.40;99813.05;1728723;82;21065;-71
2021/05/15 05:14:04;;;;;;;5.20;3.20;;;;;;;16.80;65.94;99816.65;1741687;81;21705;-70
2021/05/15 05:16:31;;;;;;;4.53;2.83;;;;;;;16.84;65.81;99821.64;1735532;81;21041;-72
2021/05/15 05:18:58;;;;;;;4.50;2.73;;;;;;;16.92;65.78;99822.22;1734711;82;21017;-71
2021/05/15 05:21:25;;;;;;;3.63;2.70;;;;;;;17.03;65.67;99821.33;1735385;81;21076;-71
2021/05/15 05:23:51;;;;;;;3.97;2.50;;;;;;;17.14;65.14;99825.84;1735861;82;21025;-71
2021/05/15 05:26:18;;;;;;;4.57;2.87;;;;;;;17.20;64.75;99822.67;1733350;82;21100;-70
2021/05/15 05:28:50;;;;;;;4.07;2.70;;;;;;;17.28;64.37;99825.14;1731307;82;21032;-71
2021/05/15 05:31:14;;;;;;;4.77;2.70;;;;;;;17.33;63.93;99830.36;1726189;82;21010;-72
2021/05/15 05:33:40;;;;;;;4.20;2.70;;;;;;;17.43;63.70;99827.88;1735651;81;21567;-72
2021/05/15 05:36:07;;;;;;;4.20;2.90;;;;;;;17.50;63.31;99823.57;1734638;82;21033;-72
2021/05/15 05:38:34;;;;;;;4.83;2.70;;;;;;;17.61;63.11;99830.01;1727573;81;21032;-69
2021/05/15 05:41:04;;;;;;;3.60;2.70;;;;;;;17.74;62.93;99834.42;1734701;82;21184;-71
2021/05/15 05:43:31;;;;;;;5.37;3.00;;;;;;;17.82;62.74;99832.27;1723912;81;21061;-71
2021/05/15 05:45:59;;;;;;;4.33;2.60;;;;;;;17.90;62.48;99830.64;1737910;82;21172;-72
2021/05/15 05:48:26;;;;;;;4.17;2.40;;;;;;;17.98;62.08;99833.33;1733195;81;21036;-71
2021/05/15 05:50:53;;;;;;;4.33;2.37;;;;;;;18.11;62.10;99833.44;1735764;82;21093;-71
2021/05/15 05:53:19;;;;;;;3.57;2.40;;;;;;;18.24;61.15;99829.16;1738230;81;21088;-71
2021/05/15 05:55:46;;;;;;;3.40;2.27;;;;;;;18.34;60.64;99828.56;1738508;82;21075;-72
2021/05/15 05:58:13;;;;;;;3.83;2.53;;;;;;;18.32;60.25;99836.98;1731173;81;21155;-71
2021/05/15 06:00:40;;;;;;;3.83;2.60;;;;;;;18.32;60.08;99839.69;1729347;81;21076;-71
2021/05/15 06:03:07;;;;;;;2.70;1.97;;;;;;;18.29;59.97;99837.62;1734222;82;21423;-72
2021/05/15 06:05:35;;;;;;;4.00;2.67;;;;;;;18.31;59.95;99835.97;1742054;81;21049;-71
2021/05/15 06:08:13;;;;;;;2.97;1.90;;;;;;;18.34;59.84;99841.52;1732624;81;21045;-71
2021/05/15 06:10:39;;;;;;;3.20;2.27;;;;;;;18.37;59.73;99838.72;1734615;82;21048;-72
2021/05/15 06:13:07;;;;;;;2.83;1.97;;;;;;;18.36;59.58;99845.23;1736384;81;21541;-72
2021/05/15 06:15:36;;;;;;;3.77;2.10;;;;;;;18.37;59.24;99844.92;1737296;81;21564;-71
2021/05/15 06:18:04;;;;;;;4.97;2.57;;;;;;;18.34;59.14;99846.92;1733644;82;21134;-71
2021/05/15 06:20:30;;;;;;;4.50;2.10;;;;;;;18.33;59.18;99845.88;1735176;81;21081;-72
2021/05/15 06:22:57;;;;;;;3.50;2.13;;;;;;;18.33;59.19;99841.82;1737901;81;21191;-73
2021/05/15 06:25:24;;;;;;;3.60;2.10;;;;;;;18.31;59.28;99841.37;1736911;82;21005;-72
2021/05/15 06:27:50;;;;;;;3.40;2.23;;;;;;;18.26;59.18;99847.73;1735981;82;21671;-71
2021/05/15 06:30:17;;;;;;;5.20;2.10;;;;;;;18.21;59.56;99855.48;1733166;82;21104;-72
2021/05/15 06:32:44;;;;;;;3.33;2.10;;;;;;;18.22;59.28;99856.27;1733250;81;21718;-72
2021/05/15 06:35:12;;;;;;;3.53;2.20;;;;;;;18.24;59.77;99864.86;1749900;81;21116;-72
2021/05/15 06:37:38;;;;;;;3.93;2.23;;;;;;;18.23;59.33;99863.28;1732166;81;20996;-71
2021/05/15 06:40:07;;;;;;;4.67;2.10;;;;;;;18.17;59.82;99861.88;1730148;82;21182;-72
2021/05/15 06:42:34;;;;;;;2.27;1.60;;;;;;;18.28;59.92;99869.28;1741541;82;21213;-72
2021/05/15 06:45:03;;;;;;;2.33;1.80;;;;;;;18.37;59.71;99863.05;1740580;81;21611;-72
2021/05/15 06:47:31;;;;;;;5.00;2.30;;;;;;;18.43;59.40;99866.59;1738600;81;21100;-71
2021/05/15 06:49:57;;;;;;;3.47;2.13;;;;;;;18.39;59.47;99864.86;1726912;81;21160;-71
2021/05/15 06:52:24;;;;;;;3.63;1.93;;;;;;;18.38;59.37;99871.39;1736405;81;21460;-72
2021/05/15 06:54:51;;;;;;;3.80;2.10;;;;;;;18.37;59.55;99874.66;1739920;81;21100;-72
2021/05/15 06:57:19;;;;;;;3.60;2.20;;;;;;;18.42;59.34;99871.75;1740154;81;21033;-72
2021/05/15 06:59:47;;;;;;;3.07;2.30;;;;;;;18.47;59.82;99878.34;1735639;81;21105;-71
2021/05/15 07:02:14;;;;;;;3.50;2.20;;;;;;;18.55;59.86;99874.56;1733611;81;22409;-72
2021/05/15 07:04:41;;;;;;;4.33;2.30;;;;;;;18.74;59.66;99876.31;1730931;82;21435;-71
2021/05/15 07:07:07;;;;;;;4.27;2.03;;;;;;;18.84;58.70;99871.86;1736103;81;21073;-72
2021/05/15 07:09:34;;;;;;;3.47;2.47;;;;;;;18.88;58.76;99872.78;1731576;81;21581;-72
2021/05/15 07:12:01;;;;;;;3.33;2.30;;;;;;;18.95;58.35;99878.48;1730204;81;21120;-73
2021/05/15 07:14:28;;;;;;;3.00;1.90;;;;;;;19.08;58.55;99869.06;1741565;81;21116;-72
2021/05/15 07:16:55;;;;;;;3.47;1.93;;;;;;;19.25;57.79;99872.19;1734594;82;21057;-73
2021/05/15 07:19:22;;;;;;;4.67;2.43;;;;;;;19.36;57.64;99872.81;1734699;81;21132;-72
2021/05/15 07:21:50;;;;;;;5.17;1.87;;;;;;;19.49;57.60;99870.95;1729478;82;21663;-71
2021/05/15 07:24:17;;;;;;;3.17;1.70;;;;;;;19.64;57.07;99868.19;1737677;81;21128;-72
2021/05/15 07:26:45;;;;;;;2.90;1.80;;;;;;;19.80;55.91;99863.72;1737728;82;21615;-71
2021/05/15 07:29:12;;;;;;;2.77;1.73;;;;;;;19.90;55.61;99867.34;1735870;81;21060;-71
2021/05/15 07:31:39;;;;;;;3.60;1.70;;;;;;;19.85;54.65;99860.02;1735026;81;21145;-71
2021/05/15 07:34:06;;;;;;;3.33;1.70;;;;;;;19.78;54.96;99864.64;1736917;81;21599;-72
2021/05/15 07:36:32;;;;;;;3.90;1.70;;;;;;;19.71;54.24;99868.46;1697118;82;21071;-72
2021/05/15 07:38:59;;;;;;;2.83;1.50;;;;;;;19.66;54.36;99865.95;1722014;81;21089;-71
2021/05/15 07:41:27;;;;;;;2.73;1.80;;;;;;;19.70;54.32;99870.13;1722690;82;21157;-71
2021/05/15 07:43:54;;;;;;;2.70;1.80;;;;;;;19.72;54.26;99870.60;1737216;81;21128;-72
2021/05/15 07:46:20;;;;;;;2.93;1.50;;;;;;;19.75;54.69;99869.37;1737653;82;21088;-71
2021/05/15 07:48:47;;;;;;;3.00;1.60;;;;;;;19.86;54.65;99875.93;1734436;81;21649;-71
2021/05/15 07:51:20;;;;;;;3.63;1.53;;;;;;;19.98;54.11;99860.27;1728345;81;21081;-72
2021/05/15 07:53:46;;;;;;;3.80;1.50;;;;;;;20.05;53.04;99865.13;1734723;82;21373;-72
2021/05/15 07:56:13;;;;;;;3.13;1.70;;;;;;;20.04;53.15;99870.30;1733874;82;21104;-71
2021/05/15 07:58:39;;;;;;;3.87;1.97;;;;;;;19.95;52.44;99879.91;1738033;81;21053;-72
2021/05/15 08:01:06;;;;;;;4.80;1.77;;;;;;;19.80;52.81;99872.41;1729639;81;21627;-71
2021/05/15 08:03:33;;;;;;;3.23;1.80;;;;;;;19.73;53.33;99868.90;1736879;81;21077;-72
2021/05/15 08:06:01;;;;;;;3.37;1.80;;;;;;;19.83;53.75;99871.18;1733613;81;21524;-72
2021/05/15 08:08:27;;;;;;;2.27;1.50;;;;;;;20.11;53.69;99859.72;1736736;81;21041;-71
2021/05/15 08:10:55;;;;;;;4.40;1.40;;;;;;;20.44;51.91;99863.67;1736447;81;21135;-71
2021/05/15 08:13:23;;;;;;;3.23;1.37;;;;;;;20.61;50.56;99859.96;1731922;82;21111;-71
2021/05/15 08:15:51;;;;;;;2.97;1.30;;;;;;;20.69;50.23;99866.39;1737471;81;21053;-72
2021/05/15 08:18:17;;;;;;;2.37;1.00;;;;;;;20.71;49.39;99873.63;1733136;81;21081;-72
2021/05/15 08:20:45;;;;;;;1.93;1.10;;;;;;;20.72;48.93;99867.84;1734355;81;21148;-72
2021/05/15 08:23:12;;;;;;;3.63;1.20;;;;;;;20.68;49.30;99864.24;1726710;81;21106;-72
2021/05/15 08:25:41;;;;;;;3.53;1.10;;;;;;;20.73;48.74;99869.98;1733155;82;21079;-72
2021/05/15 08:28:11;;;;;;;2.13;0.90;;;;;;;20.72;48.83;99866.48;1734899;81;21169;-71
2021/05/15 08:30:40;;;;;;;2.70;1.37;;;;;;;20.78;48.98;99872.48;1721194;82;21067;-72
2021/05/15 08:33:07;;;;;;;4.33;1.20;;;;;;;20.83;48.89;99868.97;1732503;81;21373;-72
2021/05/15 08:35:34;;;;;;;1.93;1.20;;;;;;;20.90;48.60;99866.25;1737991;81;21100;-72
2021/05/15 08:38:02;;;;;;;1.77;0.90;;;;;;;20.95;48.69;99872.78;1734758;82;21168;-72
2021/05/15 08:40:29;;;;;;;2.37;1.00;;;;;;;21.08;48.75;99868.91;1735673;81;21167;-71
2021/05/15 08:42:56;;;;;;;2.30;1.13;;;;;;;21.28;48.53;99866.56;1730846;82;21078;-71
2021/05/15 08:45:27;;;;;;;1.67;1.10;;;;;;;21.48;47.99;99870.23;1731758;82;21144;-72
2021/05/15 08:47:56;;;;;;;2.60;1.10;;;;;;;21.70;47.90;99870.25;1729560;81;21080;-71
2021/05/15 08:50:25;;;;;;;3.10;1.10;;;;;;;21.88;47.48;99871.27;1726380;81;21441;-72
2021/05/15 08:52:54;;;;;;;1.90;0.80;;;;;;;22.03;46.56;99863.70;1726303;82;21631;-72
2021/05/15 08:55:27;;;;;;;1.57;1.00;;;;;;;22.13;45.89;99859.67;1724348;82;21104;-71
2021/05/15 08:57:55;;;;;;;2.00;1.10;;;;;;;22.26;46.34;99869.92;1736793;82;21584;-71
2021/05/15 09:00:29;;;;;;;1.87;1.00;;;;;;;22.49;46.11;99862.69;1737611;82;21072;-71
2021/05/15 09:02:59;;;;;;;2.17;1.00;;;;;;;22.63;44.98;99864.94;1723639;82;21124;-72
2021/05/15 09:05:26;;;;;;;4.97;2.07;;;;;;;22.64;44.10;99870.05;1735141;82;21011;-71
2021/05/15 09:07:58;;;;;;;3.00;1.60;;;;;;;22.42;44.20;99866.04;1734670;81;21109;-72
2021/05/15 09:10:32;;;;;;;1.73;1.10;;;;;;;22.30;44.47;99874.87;1736159;82;21093;-72
2021/05/15 09:13:20;;;;;;;4.73;1.10;;;;;;;22.09;44.82;99870.47;1728056;81;21052;-72
2021/05/15 09:15:57;;;;;;;2.10;1.00;;;;;;;21.99;45.02;99870.99;1725912;82;21125;-72
2021/05/15 09:18:32;;;;;;;2.43;0.80;;;;;;;21.99;45.02;99870.99;1737116;82;21531;-70
2021/05/15 09:21:02;;;;;;;1.27;0.83;;;;;;;22.19;44.99;99881.42;1730303;82;21293;-73
2021/05/15 09:23:32;;;;;;;2.17;0.93;;;;;;;22.52;43.99;99877.53;1730074;81;21053;-72
2021/05/15 09:26:20;;;;;;;2.20;0.93;;;;;;;22.73;43.73;99862.24;1717796;82;21551;-71
2021/05/15 09:28:52;;;;;;;2.13;0.80;;;;;;;22.89;42.43;99867.06;1731180;82;21033;-70
2021/05/15 09:31:29;;;;;;;1.93;0.80;;;;;;;22.96;41.66;99869.97;1738610;82;21564;-71
2021/05/15 09:33:59;;;;;;;1.20;0.70;;;;;;;22.88;40.56;99866.86;1724878;82;21781;-71
2021/05/15 09:36:33;;;;;;;2.07;1.00;;;;;;;22.69;40.31;99872.48;1719331;82;21125;-71
2021/05/15 09:39:12;;;;;;;2.57;1.07;;;;;;;22.56;42.32;99880.54;1731834;82;21658;-72
2021/05/15 09:41:50;;;;;;;2.07;1.10;;;;;;;22.40;43.75;99880.55;1738501;82;21120;-73
2021/05/15 09:44:27;;;;;;;2.40;0.90;;;;;;;22.30;44.11;99881.67;1729528;81;21555;-72
2021/05/15 09:46:56;;;;;;;1.50;0.90;;;;;;;22.25;44.07;99877.30;1736546;82;21845;-72
2021/05/15 09:49:29;;;;;;;3.00;1.37;;;;;;;22.30;44.11;99868.06;1733964;82;21037;-72
2021/05/15 09:52:05;;;;;;;2.90;1.27;;;;;;;22.34;43.61;99872.47;1735827;81;21627;-72
2021/05/15 09:54:34;;;;;;;2.67;1.50;;;;;;;22.33;43.53;99873.59;1723893;81;21112;-71
2021/05/15 09:57:06;;;;;;;3.83;1.93;;;;;;;22.33;43.76;99874.95;1735633;82;21017;-71
2021/05/15 09:59:38;;;;;;;2.20;1.13;;;;;;;22.38;44.44;99876.06;1734680;82;20990;-72
2021/05/15 10:02:11;;;;;;;2.17;1.00;;;;;;;22.44;43.88;99886.89;1737258;82;21061;-72
2021/05/15 10:04:44;;;;;;;2.53;1.10;;;;;;;22.40;43.53;99892.02;1727650;82;21678;-73
2021/05/15 10:07:25;;;;;;;1.77;1.23;;;;;;;22.19;43.53;99901.25;1737062;82;21080;-73
2021/05/15 10:09:52;;;;;;;2.57;1.30;;;;;;;21.90;44.06;99892.91;1737785;82;21607;-71
2021/05/15 10:12:19;;;;;;;2.20;1.30;;;;;;;21.63;44.56;99895.89;1736530;82;21103;-72
2021/05/15 10:14:46;;;;;;;3.23;1.20;;;;;;;21.32;45.01;99906.05;1729980;81;21144;-73
2021/05/15 10:17:12;;;;;;;2.40;1.27;;;;;;;21.09;45.77;99896.27;1737946;82;21014;-71
2021/05/15 10:19:41;;;;;;;5.20;2.53;;;;;;;21.02;45.33;99907.70;1738072;81;21088;-71
2021/05/15 10:22:07;;;;;;;6.33;2.77;;;;;;;20.95;44.86;99902.64;1737446;82;21097;-72
2021/05/15 10:24:36;;;;;;;4.67;2.13;;;;;;;20.89;44.82;99914.87;1730287;81;21096;-72
2021/05/15 10:27:13;;;;;;;3.50;1.13;;;;;;;20.76;45.38;99912.19;1738020;82;21156;-71
2021/05/15 10:29:46;;;;;;;3.03;1.27;;;;;;;20.70;45.22;99906.77;1736349;82;21073;-71
2021/05/15 10:32:21;;;;;;;4.10;1.30;;;;;;;20.62;45.61;99910.37;1718778;82;21609;-72
2021/05/15 10:35:07;;;;;;;5.10;1.70;;;;;;;20.49;46.70;99912.27;1718997;81;21626;-72
2021/05/15 10:37:43;;;;;;;4.47;1.50;;;;;;;20.41;47.30;99907.75;1737540;82;21022;-71
2021/05/15 10:40:20;;;;;;;2.60;1.40;;;;;;;20.42;47.38;99903.11;1737532;82;21089;-71
2021/05/15 10:43:01;;;;;;;2.57;1.40;;;;;;;20.56;47.78;99899.52;1720497;82;21104;-71
2021/05/15 10:45:40;;;;;;;1.70;1.17;;;;;;;20.79;47.18;99899.27;1726393;81;21100;-71
2021/05/15 10:48:24;;;;;;;2.30;1.50;;;;;;;20.99;46.80;99900.82;1734909;81;21089;-72
2021/05/15 10:50:59;;;;;;;2.70;1.47;;;;;;;21.11;46.89;99904.88;1729138;81;21505;-71
2021/05/15 10:53:30;;;;;;;2.87;1.60;;;;;;;21.22;46.84;99900.56;1734124;81;21079;-69
2021/05/15 10:56:18;;;;;;;4.40;1.50;;;;;;;21.22;47.07;99899.20;1725000;82;21006;-68
2021/05/15 10:58:50;;;;;;;2.50;1.60;;;;;;;21.29;47.14;99891.82;1734127;81;21041;-68
2021/05/15 11:01:22;;;;;;;;;;;;;;;21.34;47.18;99890.78;1738255;82;21164;-68
2021/05/15 11:03:49;;;;;;;3.23;1.60;;;;;;;21.39;46.97;99896.80;1737582;81;20958;-68
2021/05/15 11:06:24;;;;;;;4.83;1.60;;;;;;;21.41;46.79;99901.87;1726688;81;21274;-67
2021/05/15 11:09:01;;;;;;;3.00;1.67;;;;;;;21.42;46.79;99905.61;1734144;82;21612;-67
2021/05/15 11:11:40;;;;;;;4.47;1.90;;;;;;;21.39;47.16;99906.84;1732269;82;21186;-68
2021/05/15 11:14:34;;;;;;;2.87;1.47;;;;;;;21.28;47.06;99910.02;1730582;81;21172;-68
2021/05/15 11:17:17;;;;;;;2.73;1.60;;;;;;;21.18;46.49;99915.16;1725308;81;21163;-68
2021/05/15 11:19:59;;;;;;;2.53;1.60;;;;;;;21.01;47.09;99915.64;1735439;81;21096;-72
2021/05/15 11:22:48;;;;;;;3.20;1.60;;;;;;;21.00;47.83;99914.06;1736791;81;21010;-71
2021/05/15 11:25:27;;;;;;;2.80;1.67;;;;;;;21.09;47.63;99915.28;1731794;81;21104;-71
2021/05/15 11:28:03;;;;;;;5.10;2.20;;;;;;;21.07;47.42;99922.99;1732546;81;21111;-70
2021/05/15 11:30:37;;;;;;;2.30;1.60;;;;;;;20.93;48.84;99934.80;1736260;81;21098;-71
2021/05/15 11:33:12;;;;;;;2.07;1.10;;;;;;;20.71;48.03;99940.11;1733203;82;21108;-73
2021/05/15 11:35:42;;;;;;;2.07;1.10;;;;;;;20.48;48.44;99937.81;1729037;81;21025;-71
2021/05/15 11:38:13;;;;;;;1.17;1.00;;;;;;;20.29;47.89;99945.13;1739215;81;20994;-72
2021/05/15 11:40:51;;;;;;;2.13;1.03;;;;;;;20.13;48.36;99942.28;1738309;81;20957;-72
2021/05/15 11:43:24;;;;;;;1.20;0.80;;;;;;;20.09;48.61;99945.44;1749314;81;21089;-72